createdAt,value
2017-05-16T00:00:31.675Z,7.76
2017-05-16T00:03:02.536Z,7.86
2017-05-16T00:05:33.595Z,8.38
2017-05-16T00:08:04.419Z,7.54
2017-05-16T00:10:35.245Z,7.12
2017-05-16T00:13:06.006Z,7.22
2017-05-16T00:15:36.841Z,8.58
2017-05-16T00:18:07.597Z,7.88
2017-05-16T00:20:38.423Z,9.44
2017-05-16T00:23:09.192Z,8.82
2017-05-16T00:25:39.978Z,8.40
2017-05-16T00:28:12.111Z,9.12
2017-05-16T00:30:43.203Z,9.18
2017-05-16T00:33:14.003Z,9.86
2017-05-16T00:35:44.886Z,9.76
2017-05-16T00:38:15.662Z,10.18
2017-05-16T00:40:47.321Z,11.42
2017-05-16T00:43:18.113Z,11.44
2017-05-16T00:45:48.936Z,10.34
2017-05-16T00:48:19.778Z,10.56
2017-05-16T00:50:50.656Z,9.64
2017-05-16T00:53:22.344Z,10.56
2017-05-16T00:55:53.148Z,8.48
2017-05-16T00:58:23.950Z,9.28
2017-05-16T01:00:55.056Z,9.20
2017-05-16T01:03:25.846Z,9.80
2017-05-16T01:05:56.740Z,10.00
2017-05-16T01:08:27.562Z,9.08
2017-05-16T01:10:58.411Z,8.86
2017-05-16T01:13:29.955Z,8.74
2017-05-16T01:16:00.746Z,8.54
2017-05-16T01:18:31.508Z,9.72
2017-05-16T01:21:03.036Z,8.50
2017-05-16T01:23:33.807Z,8.88
2017-05-16T01:26:04.650Z,8.38
2017-05-16T01:28:37.107Z,8.36
2017-05-16T01:31:07.923Z,8.76
2017-05-16T01:33:38.682Z,8.80
2017-05-16T01:36:09.591Z,8.66
2017-05-16T01:38:40.012Z,10.42
2017-05-16T01:41:11.622Z,9.90
2017-05-16T01:43:42.044Z,9.42
2017-05-16T01:46:12.681Z,8.78
2017-05-16T01:48:43.550Z,9.42
2017-05-16T01:51:14.406Z,10.18
2017-05-16T01:53:45.229Z,8.74
2017-05-16T01:56:16.082Z,9.52
2017-05-16T01:58:47.491Z,9.92
2017-05-16T02:01:18.328Z,11.94
2017-05-16T02:03:49.116Z,11.52
2017-05-16T02:06:19.925Z,10.82
2017-05-16T02:08:50.727Z,11.76
2017-05-16T02:11:21.554Z,12.18
2017-05-16T02:13:52.331Z,12.08
2017-05-16T02:16:23.158Z,14.52
2017-05-16T02:18:53.981Z,15.02
2017-05-16T02:21:24.831Z,17.22
2017-05-16T02:23:55.626Z,17.28
2017-05-16T02:26:26.465Z,16.14
2017-05-16T02:28:57.337Z,14.96
2017-05-16T02:31:27.874Z,15.40
2017-05-16T02:33:58.671Z,14.80
2017-05-16T02:36:29.671Z,15.52
2017-05-16T02:39:00.443Z,17.76
2017-05-16T02:41:31.075Z,18.42
2017-05-16T02:44:01.852Z,19.08
2017-05-16T02:46:32.671Z,18.74
2017-05-16T02:49:04.038Z,18.14
2017-05-16T02:51:34.873Z,18.22
2017-05-16T02:54:05.662Z,17.46
2017-05-16T02:56:36.527Z,17.20
2017-05-16T02:59:07.331Z,17.66
2017-05-16T03:01:38.149Z,18.58
2017-05-16T03:04:08.962Z,18.28
2017-05-16T03:06:39.790Z,17.08
2017-05-16T03:09:10.570Z,17.32
2017-05-16T03:11:42.324Z,14.56
2017-05-16T03:14:13.191Z,15.36
2017-05-16T03:16:44.067Z,14.78
2017-05-16T03:19:14.861Z,14.96
2017-05-16T03:21:45.679Z,16.16
2017-05-16T03:24:16.447Z,15.18
2017-05-16T03:26:47.275Z,15.20
2017-05-16T03:29:18.108Z,14.52
2017-05-16T03:31:48.955Z,13.84
2017-05-16T03:34:19.734Z,14.34
2017-05-16T03:36:50.578Z,14.08
2017-05-16T03:39:23.013Z,15.12
2017-05-16T03:41:53.859Z,14.22
2017-05-16T03:44:25.882Z,13.00
2017-05-16T03:46:56.728Z,14.16
2017-05-16T03:49:27.516Z,13.46
2017-05-16T03:51:58.369Z,13.98
2017-05-16T03:54:29.170Z,13.72
2017-05-16T03:57:00.031Z,13.06
2017-05-16T03:59:31.730Z,12.56
2017-05-16T04:02:04.312Z,12.50
2017-05-16T04:04:35.481Z,13.12
2017-05-16T04:07:09.320Z,13.16
2017-05-16T04:09:41.897Z,13.48
2017-05-16T04:12:14.051Z,11.54
2017-05-16T04:14:44.887Z,12.00
2017-05-16T04:17:16.917Z,12.90
2017-05-16T04:19:48.037Z,12.90
2017-05-16T04:22:19.782Z,11.90
2017-05-16T04:24:51.059Z,11.66
2017-05-16T04:27:21.874Z,13.16
2017-05-16T04:29:53.533Z,11.86
2017-05-16T04:32:24.473Z,11.20
2017-05-16T04:34:55.262Z,11.58
2017-05-16T04:37:26.082Z,11.22
2017-05-16T04:39:58.068Z,12.76
2017-05-16T04:42:30.983Z,11.50
2017-05-16T04:45:03.365Z,11.72
2017-05-16T04:47:36.853Z,11.24
2017-05-16T04:50:10.227Z,11.94
2017-05-16T04:52:43.986Z,11.68
2017-05-16T04:55:16.664Z,11.52
2017-05-16T04:57:49.371Z,11.58
2017-05-16T05:00:22.579Z,12.34
2017-05-16T05:02:55.319Z,11.86
2017-05-16T05:05:27.941Z,12.64
2017-05-16T05:07:58.966Z,12.86
2017-05-16T05:10:29.767Z,13.30
2017-05-16T05:13:00.669Z,14.54
2017-05-16T05:15:31.510Z,13.64
2017-05-16T05:18:02.316Z,13.32
2017-05-16T05:20:33.109Z,13.06
2017-05-16T05:23:03.926Z,12.46
2017-05-16T05:25:34.701Z,12.66
2017-05-16T05:28:05.603Z,12.16
2017-05-16T05:30:37.276Z,12.40
2017-05-16T05:33:08.123Z,11.82
2017-05-16T05:35:38.896Z,13.86
2017-05-16T05:38:09.734Z,11.84
2017-05-16T05:40:40.522Z,12.36
2017-05-16T05:43:12.312Z,12.08
2017-05-16T05:45:43.170Z,12.60
2017-05-16T05:48:15.026Z,11.76
2017-05-16T05:50:47.528Z,12.58
2017-05-16T05:53:19.928Z,11.74
2017-05-16T05:55:52.157Z,12.06
2017-05-16T05:58:23.926Z,12.20
2017-05-16T06:00:55.947Z,12.18
2017-05-16T06:03:28.075Z,12.68
2017-05-16T06:05:59.354Z,11.88
2017-05-16T06:08:30.198Z,11.86
2017-05-16T06:11:00.982Z,13.40
2017-05-16T06:13:33.088Z,13.08
2017-05-16T06:16:03.884Z,12.78
2017-05-16T06:18:34.696Z,13.14
2017-05-16T06:21:05.466Z,12.84
2017-05-16T06:23:36.308Z,12.92
2017-05-16T06:26:07.092Z,13.74
2017-05-16T06:28:37.987Z,13.90
2017-05-16T06:31:08.801Z,13.46
2017-05-16T06:33:39.600Z,12.48
2017-05-16T06:36:10.367Z,12.80
2017-05-16T06:38:41.178Z,14.20
2017-05-16T06:41:11.880Z,13.72
2017-05-16T06:43:42.794Z,13.46
2017-05-16T06:46:13.743Z,14.24
2017-05-16T06:48:45.073Z,14.68
2017-05-16T06:51:16.518Z,15.10
2017-05-16T06:53:47.363Z,14.02
2017-05-16T06:56:18.154Z,15.46
2017-05-16T06:58:49.002Z,15.92
2017-05-16T07:01:19.778Z,14.50
2017-05-16T07:03:50.592Z,14.44
2017-05-16T07:06:21.359Z,15.44
2017-05-16T07:08:52.188Z,13.86
2017-05-16T07:11:22.975Z,13.54
2017-05-16T07:13:53.811Z,13.56
2017-05-16T07:16:24.627Z,16.56
2017-05-16T07:18:55.435Z,16.34
2017-05-16T07:21:26.215Z,16.04
2017-05-16T07:23:57.079Z,15.30
2017-05-16T07:26:27.839Z,15.32
2017-05-16T07:28:58.672Z,14.64
2017-05-16T07:31:29.478Z,16.42
2017-05-16T07:34:00.382Z,17.62
2017-05-16T07:36:31.148Z,15.92
2017-05-16T07:39:02.009Z,16.04
2017-05-16T07:41:32.794Z,15.74
2017-05-16T07:44:03.611Z,15.22
2017-05-16T07:46:34.390Z,15.24
2017-05-16T07:49:05.234Z,13.94
2017-05-16T07:51:36.010Z,12.78
2017-05-16T07:54:06.801Z,10.10
2017-05-16T07:56:37.622Z,8.50
2017-05-16T07:59:08.493Z,9.82
2017-05-16T08:01:39.257Z,7.50
2017-05-16T08:04:10.093Z,7.72
2017-05-16T08:06:40.884Z,6.78
2017-05-16T08:09:11.710Z,6.90
2017-05-16T08:11:42.663Z,8.56
2017-05-16T08:14:13.515Z,8.90
2017-05-16T08:16:44.350Z,8.34
2017-05-16T08:19:15.179Z,10.02
2017-05-16T08:21:46.003Z,9.02
2017-05-16T08:24:16.903Z,10.50
2017-05-16T08:26:47.723Z,8.90
2017-05-16T08:29:18.527Z,10.82
2017-05-16T08:31:49.338Z,9.86
2017-05-16T08:34:20.145Z,10.26
2017-05-16T08:36:50.938Z,10.12
2017-05-16T08:39:21.792Z,10.88
2017-05-16T08:41:52.571Z,10.92
2017-05-16T08:44:23.387Z,10.38
2017-05-16T08:46:54.158Z,9.22
2017-05-16T08:49:24.994Z,8.90
2017-05-16T08:51:55.775Z,9.68
2017-05-16T08:54:26.626Z,10.12
2017-05-16T08:56:57.394Z,11.36
2017-05-16T08:59:28.249Z,10.82
2017-05-16T09:01:59.027Z,10.14
2017-05-16T09:04:29.861Z,8.52
2017-05-16T09:07:00.639Z,9.16
2017-05-16T09:12:11.498Z,8.86
2017-05-16T09:14:42.296Z,6.90
2017-05-16T09:17:13.189Z,6.40
2017-05-16T09:19:44.029Z,6.28
2017-05-16T09:22:14.860Z,3.74
2017-05-16T09:24:45.806Z,3.86
2017-05-16T09:27:16.574Z,4.06
2017-05-16T09:29:47.387Z,3.92
2017-05-16T09:32:18.267Z,3.90
2017-05-16T09:34:49.196Z,3.78
2017-05-16T09:37:19.955Z,3.36
2017-05-16T09:39:50.756Z,4.82
2017-05-16T09:42:21.523Z,4.62
2017-05-16T09:44:52.377Z,3.48
2017-05-16T09:47:23.152Z,3.60
2017-05-16T09:49:53.999Z,4.22
2017-05-16T09:52:24.803Z,4.40
2017-05-16T09:54:55.626Z,3.90
2017-05-16T09:57:26.390Z,4.50
2017-05-16T09:59:57.182Z,3.64
2017-05-16T10:02:28.018Z,3.54
2017-05-16T10:04:59.038Z,3.94
2017-05-16T10:07:29.838Z,3.54
2017-05-16T10:10:00.736Z,4.68
2017-05-16T10:12:31.492Z,3.72
2017-05-16T10:15:02.307Z,4.44
2017-05-16T10:17:33.082Z,4.28
2017-05-16T10:20:03.879Z,4.20
2017-05-16T10:22:34.659Z,4.00
2017-05-16T10:25:05.483Z,4.68
2017-05-16T10:27:36.254Z,4.44
2017-05-16T10:30:07.090Z,3.92
2017-05-16T10:32:37.927Z,4.46
2017-05-16T10:35:08.723Z,4.50
2017-05-16T10:37:39.541Z,4.90
2017-05-16T10:40:10.387Z,4.50
2017-05-16T10:42:41.147Z,5.08
2017-05-16T10:45:11.933Z,4.20
2017-05-16T10:47:42.695Z,5.28
2017-05-16T10:50:13.613Z,4.04
2017-05-16T10:52:44.438Z,4.02
2017-05-16T10:55:15.242Z,3.96
2017-05-16T10:57:46.041Z,3.94
2017-05-16T11:00:16.831Z,4.18
2017-05-16T11:02:47.602Z,3.54
2017-05-16T11:05:18.422Z,4.46
2017-05-16T11:07:49.182Z,3.32
2017-05-16T11:10:20.027Z,2.90
2017-05-16T11:12:50.797Z,2.70
2017-05-16T11:15:21.619Z,2.82
2017-05-16T11:17:52.446Z,3.06
2017-05-16T11:20:23.310Z,4.12
2017-05-16T11:22:54.086Z,3.72
2017-05-16T11:25:24.878Z,4.14
2017-05-16T11:27:55.653Z,3.76
2017-05-16T11:30:26.454Z,2.92
2017-05-16T11:32:57.257Z,3.50
2017-05-16T11:35:28.116Z,3.52
2017-05-16T11:37:58.878Z,3.02
2017-05-16T11:40:29.694Z,3.12
2017-05-16T11:43:00.471Z,3.70
2017-05-16T11:45:31.304Z,2.88
2017-05-16T11:48:02.106Z,3.26
2017-05-16T11:50:32.942Z,3.64
2017-05-16T11:53:03.707Z,4.46
2017-05-16T11:55:34.569Z,3.76
2017-05-16T11:58:05.320Z,3.02
2017-05-16T12:00:36.102Z,3.28
2017-05-16T12:03:06.934Z,3.08
2017-05-16T12:05:37.789Z,3.86
2017-05-16T12:08:08.548Z,3.50
2017-05-16T12:10:39.364Z,2.84
2017-05-16T12:13:10.167Z,3.20
2017-05-16T12:15:41.032Z,3.42
2017-05-16T12:18:11.906Z,2.90
2017-05-16T12:20:42.714Z,3.42
2017-05-16T12:23:13.803Z,3.10
2017-05-16T12:25:44.667Z,2.88
2017-05-16T12:28:15.434Z,2.92
2017-05-16T12:30:46.288Z,2.78
2017-05-16T12:33:17.103Z,2.50
2017-05-16T12:35:47.962Z,2.70
2017-05-16T12:38:18.731Z,2.46
2017-05-16T12:40:49.543Z,3.16
2017-05-16T12:43:20.346Z,2.50
2017-05-16T12:45:51.196Z,2.42
2017-05-16T12:48:21.982Z,2.70
2017-05-16T12:50:52.809Z,2.86
2017-05-16T12:53:23.578Z,2.36
2017-05-16T12:55:54.383Z,2.66
2017-05-16T12:58:25.146Z,2.34
2017-05-16T13:00:56.010Z,2.30
2017-05-16T13:03:26.756Z,2.20
2017-05-16T13:05:57.594Z,2.32
2017-05-16T13:08:28.346Z,2.60
2017-05-16T13:10:59.154Z,2.48
2017-05-16T13:13:29.906Z,2.40
2017-05-16T13:16:00.749Z,2.60
2017-05-16T13:18:31.519Z,2.00
2017-05-16T13:21:02.325Z,2.66
2017-05-16T13:23:33.217Z,2.56
2017-05-16T13:26:04.206Z,2.22
2017-05-16T13:28:34.965Z,1.76
2017-05-16T13:31:05.756Z,2.40
2017-05-16T13:33:36.553Z,2.20
2017-05-16T13:36:07.381Z,2.20
2017-05-16T13:38:38.212Z,2.22
2017-05-16T13:41:09.153Z,2.28
2017-05-16T13:43:39.915Z,2.56
2017-05-16T13:46:10.716Z,2.70
2017-05-16T13:48:41.474Z,2.14
2017-05-16T13:51:12.288Z,2.38
2017-05-16T13:53:43.133Z,2.66
2017-05-16T13:56:14.117Z,1.80
2017-05-16T13:58:44.875Z,2.12
2017-05-16T14:01:15.770Z,2.60
2017-05-16T14:03:46.641Z,2.18
2017-05-16T14:06:17.445Z,2.20
2017-05-16T14:08:48.232Z,2.40
2017-05-16T14:11:19.062Z,2.38
2017-05-16T14:13:49.822Z,2.40
2017-05-16T14:16:20.657Z,2.78
2017-05-16T14:18:51.416Z,2.38
2017-05-16T14:21:22.211Z,2.48
2017-05-16T14:23:53.704Z,2.10
2017-05-16T14:26:24.578Z,2.24
2017-05-16T14:28:55.414Z,2.50
2017-05-16T14:31:26.229Z,2.22
2017-05-16T14:33:57.035Z,1.84
2017-05-16T14:36:27.849Z,2.34
2017-05-16T14:38:58.597Z,1.94
2017-05-16T14:41:29.430Z,2.04
2017-05-16T14:44:00.202Z,1.98
2017-05-16T14:46:31.050Z,1.96
2017-05-16T14:49:01.821Z,2.42
2017-05-16T14:51:32.626Z,1.92
2017-05-16T14:54:03.454Z,2.74
2017-05-16T14:56:34.225Z,2.08
2017-05-16T14:59:04.967Z,2.44
2017-05-16T15:01:35.797Z,1.96
2017-05-16T15:04:06.593Z,2.24
2017-05-16T15:06:37.381Z,2.30
2017-05-16T15:09:08.159Z,2.24
2017-05-16T15:11:39.873Z,1.86
2017-05-16T15:14:10.689Z,1.80
2017-05-16T15:16:41.492Z,2.30
2017-05-16T15:19:12.246Z,1.88
2017-05-16T15:21:43.037Z,2.12
2017-05-16T15:24:14.094Z,1.70
2017-05-16T15:26:44.939Z,1.72
2017-05-16T15:29:15.716Z,1.74
2017-05-16T15:31:46.545Z,1.94
2017-05-16T15:34:17.381Z,1.90
2017-05-16T15:36:48.175Z,1.80
2017-05-16T15:39:18.951Z,1.82
2017-05-16T15:41:49.803Z,1.60
2017-05-16T15:44:20.578Z,1.80
2017-05-16T15:46:51.391Z,1.82
2017-05-16T15:49:22.173Z,1.80
2017-05-16T15:51:52.990Z,1.58
2017-05-16T15:54:23.763Z,1.80
2017-05-16T15:56:54.550Z,1.82
2017-05-16T15:59:25.314Z,2.20
2017-05-16T16:01:56.125Z,1.76
2017-05-16T16:04:26.897Z,2.48
2017-05-16T16:06:57.729Z,1.80
2017-05-16T16:09:28.512Z,1.92
2017-05-16T16:11:59.296Z,1.94
2017-05-16T16:14:30.070Z,2.70
2017-05-16T16:17:00.883Z,1.88
2017-05-16T16:19:31.666Z,1.72
2017-05-16T16:22:02.468Z,2.34
2017-05-16T16:24:33.238Z,1.80
2017-05-16T16:27:04.040Z,1.90
2017-05-16T16:29:34.799Z,1.84
2017-05-16T16:32:05.609Z,1.96
2017-05-16T16:34:36.404Z,1.90
2017-05-16T16:37:07.226Z,2.04
2017-05-16T16:39:38.075Z,1.74
2017-05-16T16:42:08.875Z,2.18
2017-05-16T16:44:39.806Z,1.80
2017-05-16T16:47:10.624Z,1.68
2017-05-16T16:49:41.375Z,1.98
2017-05-16T16:52:12.179Z,1.82
2017-05-16T16:54:42.972Z,1.88
2017-05-16T16:57:13.999Z,1.92
2017-05-16T16:59:44.879Z,1.80
2017-05-16T17:02:15.713Z,2.12
2017-05-16T17:04:46.486Z,2.40
2017-05-16T17:07:17.279Z,1.98
2017-05-16T17:09:48.054Z,2.10
2017-05-16T17:12:18.917Z,2.14
2017-05-16T17:14:49.674Z,2.16
2017-05-16T17:17:20.517Z,2.54
2017-05-16T17:19:51.300Z,2.12
2017-05-16T17:22:22.112Z,2.08
2017-05-16T17:24:52.934Z,2.50
2017-05-16T17:27:23.768Z,2.58
2017-05-16T17:29:54.576Z,2.48
2017-05-16T17:32:25.384Z,2.44
2017-05-16T17:34:56.354Z,2.50
2017-05-16T17:37:27.183Z,2.70
2017-05-16T17:39:58.017Z,2.60
2017-05-16T17:42:28.859Z,2.62
2017-05-16T17:44:59.616Z,2.24
2017-05-16T17:47:30.486Z,2.56
2017-05-16T17:50:01.291Z,2.60
2017-05-16T17:52:32.081Z,2.18
2017-05-16T17:55:02.860Z,2.40
2017-05-16T17:57:33.825Z,2.82
2017-05-16T18:00:05.633Z,2.50
2017-05-16T18:02:38.519Z,2.70
2017-05-16T18:05:11.264Z,2.56
2017-05-16T18:07:43.332Z,3.00
2017-05-16T18:10:14.278Z,3.98
2017-05-16T18:12:46.211Z,2.84
2017-05-16T18:15:17.950Z,3.06
2017-05-16T18:17:48.927Z,3.30
2017-05-16T18:20:20.340Z,3.22
2017-05-16T18:22:53.103Z,3.32
2017-05-16T18:25:25.729Z,3.28
2017-05-16T18:28:00.196Z,3.50
2017-05-16T18:30:32.644Z,3.50
2017-05-16T18:33:03.862Z,3.06
2017-05-16T18:35:34.789Z,3.40
2017-05-16T18:38:07.523Z,3.52
2017-05-16T18:40:40.193Z,3.16
2017-05-16T18:43:12.614Z,3.80
2017-05-16T18:45:43.803Z,4.02
2017-05-16T18:48:15.202Z,3.86
2017-05-16T18:50:46.149Z,4.32
2017-05-16T18:53:16.924Z,4.14
2017-05-16T18:55:47.843Z,4.06
2017-05-16T18:58:18.630Z,3.66
2017-05-16T19:00:49.448Z,3.96
2017-05-16T19:03:20.194Z,3.84
2017-05-16T19:05:51.001Z,4.24
2017-05-16T19:08:24.157Z,4.10
2017-05-16T19:10:57.381Z,4.00
2017-05-16T19:13:31.913Z,3.62
2017-05-16T19:16:05.517Z,4.44
2017-05-16T19:18:38.895Z,4.18
2017-05-16T19:21:12.078Z,3.98
2017-05-16T19:23:44.551Z,4.38
2017-05-16T19:26:18.063Z,4.08
2017-05-16T19:28:51.984Z,4.34
2017-05-16T19:31:26.186Z,4.04
2017-05-16T19:33:58.358Z,4.86
2017-05-16T19:36:29.780Z,4.62
2017-05-16T19:39:02.686Z,4.48
2017-05-16T19:41:36.433Z,4.82
2017-05-16T19:44:08.007Z,4.88
2017-05-16T19:46:38.871Z,5.58
2017-05-16T19:49:09.650Z,4.40
2017-05-16T19:51:40.477Z,4.40
2017-05-16T19:54:12.386Z,4.30
2017-05-16T19:56:46.151Z,4.24
2017-05-16T19:59:19.703Z,3.98
2017-05-16T20:01:52.512Z,4.38
2017-05-16T20:04:25.230Z,4.28
2017-05-16T20:06:59.378Z,4.62
2017-05-16T20:09:33.587Z,4.16
2017-05-16T20:12:08.010Z,3.88
2017-05-16T20:14:39.605Z,4.56
2017-05-16T20:17:11.791Z,3.94
2017-05-16T20:19:46.946Z,4.24
2017-05-16T20:22:22.014Z,4.50
2017-05-16T20:24:55.558Z,4.12
2017-05-16T20:27:29.979Z,4.74
2017-05-16T20:30:04.139Z,4.20
2017-05-16T20:32:37.145Z,3.90
2017-05-16T20:35:11.013Z,5.04
2017-05-16T20:37:45.741Z,4.60
2017-05-16T20:40:20.009Z,4.28
2017-05-16T20:42:55.333Z,4.04
2017-05-16T20:45:27.561Z,4.84
2017-05-16T20:47:59.107Z,4.38
2017-05-16T20:50:30.220Z,4.90
2017-05-16T20:53:01.018Z,3.98
2017-05-16T20:55:31.815Z,4.68
2017-05-16T20:58:03.383Z,4.56
2017-05-16T21:00:34.142Z,4.92
2017-05-16T21:03:04.955Z,5.68
2017-05-16T21:05:35.720Z,5.42
2017-05-16T21:08:06.531Z,6.88
2017-05-16T21:10:37.291Z,5.98
2017-05-16T21:13:08.103Z,7.20
2017-05-16T21:15:38.951Z,7.50
2017-05-16T21:18:09.761Z,7.68
2017-05-16T21:20:41.809Z,7.52
2017-05-16T21:23:12.716Z,7.46
2017-05-16T21:25:43.485Z,6.98
2017-05-16T21:28:14.353Z,7.52
2017-05-16T21:30:45.162Z,7.90
2017-05-16T21:33:16.575Z,7.86
2017-05-16T21:35:47.347Z,7.90
2017-05-16T21:38:18.207Z,7.84
2017-05-16T21:40:48.979Z,7.92
2017-05-16T21:43:19.771Z,7.54
2017-05-16T21:45:50.605Z,8.26
2017-05-16T21:48:21.423Z,7.30
2017-05-16T21:50:52.183Z,7.60
2017-05-16T21:53:23.759Z,7.64
2017-05-16T21:55:54.520Z,7.40
2017-05-16T21:58:25.347Z,7.28
2017-05-16T22:00:57.059Z,8.02
2017-05-16T22:03:27.913Z,8.58
2017-05-16T22:05:58.702Z,8.20
2017-05-16T22:08:29.571Z,8.86
2017-05-16T22:11:00.385Z,10.48
2017-05-16T22:13:31.248Z,9.10
2017-05-16T22:16:02.031Z,9.88
2017-05-16T22:18:32.842Z,9.80
2017-05-16T22:21:03.629Z,9.62
2017-05-16T22:23:34.488Z,9.00
2017-05-16T22:26:05.245Z,10.22
2017-05-16T22:28:36.063Z,11.16
2017-05-16T22:31:07.113Z,10.02
2017-05-16T22:33:37.947Z,10.96
2017-05-16T22:36:08.849Z,10.26
2017-05-16T22:38:39.727Z,10.18
2017-05-16T22:41:10.520Z,9.88
2017-05-16T22:43:41.168Z,10.08
2017-05-16T22:46:11.985Z,11.06
2017-05-16T22:48:42.818Z,10.10
2017-05-16T22:51:13.275Z,10.04
2017-05-16T22:53:44.143Z,9.70
2017-05-16T22:56:14.953Z,10.02
2017-05-16T22:58:45.785Z,10.20
2017-05-16T23:01:16.628Z,10.20
2017-05-16T23:03:47.435Z,10.60
2017-05-16T23:06:18.223Z,10.18
2017-05-16T23:08:49.068Z,10.06
2017-05-16T23:11:19.838Z,10.66
2017-05-16T23:13:50.658Z,11.40
2017-05-16T23:16:22.980Z,10.62
2017-05-16T23:18:53.814Z,10.64
2017-05-16T23:21:24.582Z,11.26
2017-05-16T23:23:55.408Z,10.02
2017-05-16T23:26:26.215Z,10.68
2017-05-16T23:28:57.042Z,10.74
2017-05-16T23:31:27.843Z,10.74
2017-05-16T23:33:58.785Z,10.92
2017-05-16T23:36:29.592Z,11.46
2017-05-16T23:39:00.483Z,11.82
2017-05-16T23:41:31.264Z,10.76
2017-05-16T23:44:02.124Z,10.38
2017-05-16T23:46:32.923Z,11.12
2017-05-16T23:49:03.758Z,10.06
2017-05-16T23:51:34.548Z,10.42
2017-05-16T23:54:05.383Z,10.02
2017-05-16T23:56:36.170Z,9.28
2017-05-16T23:59:07.007Z,9.10
